createdAt,value
2019-03-05T00:00:29.877Z,82.12
2019-03-05T00:03:00.056Z,72.27
2019-03-05T00:05:30.066Z,71.42
2019-03-05T00:08:00.159Z,67.90
2019-03-05T00:10:30.290Z,65.92
2019-03-05T00:13:00.257Z,61.68
2019-03-05T00:15:31.090Z,61.77
2019-03-05T00:18:01.222Z,66.57
2019-03-05T00:20:31.226Z,63.00
2019-03-05T00:23:01.196Z,60.05
2019-03-05T00:25:35.071Z,60.20
2019-03-05T00:28:25.042Z,56.98
2019-03-05T00:31:01.503Z,62.40
2019-03-05T00:33:49.798Z,66.30
2019-03-05T00:36:26.015Z,58.25
2019-03-05T00:39:21.951Z,59.83
2019-03-05T00:42:04.173Z,61.90
2019-03-05T00:44:52.675Z,63.25
2019-03-05T00:47:25.989Z,60.65
2019-03-05T00:49:59.261Z,60.00
2019-03-05T00:52:56.563Z,64.55
2019-03-05T00:55:41.824Z,62.98
2019-03-05T00:58:30.184Z,62.75
2019-03-05T01:01:18.895Z,60.73
2019-03-05T01:04:07.340Z,61.92
2019-03-05T01:06:37.454Z,60.45
2019-03-05T01:09:14.550Z,59.05
2019-03-05T01:11:44.721Z,60.00
2019-03-05T01:14:14.940Z,57.93
2019-03-05T01:16:45.025Z,60.05
2019-03-05T01:19:15.125Z,59.13
2019-03-05T01:21:45.195Z,60.23
2019-03-05T01:24:15.214Z,58.08
2019-03-05T01:26:45.210Z,57.95
2019-03-05T01:29:15.204Z,58.52
2019-03-05T01:32:02.834Z,59.23
2019-03-05T01:34:40.647Z,62.20
2019-03-05T01:37:10.732Z,60.78
2019-03-05T01:39:44.987Z,62.62
2019-03-05T01:42:15.041Z,59.00
2019-03-05T01:44:45.132Z,60.03
2019-03-05T01:47:15.155Z,65.92
2019-03-05T01:49:45.151Z,63.87
2019-03-05T01:52:15.178Z,65.12
2019-03-05T01:54:45.096Z,59.48
2019-03-05T01:57:15.206Z,63.15
2019-03-05T01:59:45.185Z,58.25
2019-03-05T02:02:15.247Z,54.08
2019-03-05T02:04:45.403Z,55.65
2019-03-05T02:07:15.557Z,56.42
2019-03-05T02:09:45.558Z,53.92
2019-03-05T02:12:16.634Z,49.55
2019-03-05T02:14:46.797Z,46.05
2019-03-05T02:17:16.768Z,48.15
2019-03-05T02:19:47.182Z,45.90
2019-03-05T02:22:25.994Z,44.75
2019-03-05T02:25:01.800Z,43.20
2019-03-05T02:27:53.150Z,42.25
2019-03-05T02:30:26.383Z,40.65
2019-03-05T02:32:59.623Z,41.88
2019-03-05T02:35:51.187Z,47.48
2019-03-05T02:38:36.503Z,49.18
2019-03-05T02:41:18.732Z,48.33
2019-03-05T02:44:26.631Z,47.90
2019-03-05T02:46:59.852Z,45.65
2019-03-05T02:49:53.992Z,43.80
2019-03-05T02:52:42.034Z,45.35
2019-03-05T02:55:15.227Z,43.13
2019-03-05T02:57:44.298Z,48.95
2019-03-05T03:00:15.923Z,47.55
2019-03-05T03:02:47.547Z,46.42
2019-03-05T03:05:34.549Z,50.98
2019-03-05T03:08:04.601Z,52.23
2019-03-05T03:10:34.615Z,51.55
2019-03-05T03:13:04.698Z,47.25
2019-03-05T03:15:34.623Z,46.75
2019-03-05T03:18:04.835Z,45.73
2019-03-05T03:20:34.994Z,46.37
2019-03-05T03:23:05.176Z,44.60
2019-03-05T03:25:35.250Z,45.12
2019-03-05T03:28:05.292Z,41.68
2019-03-05T03:30:35.405Z,37.78
2019-03-05T03:33:05.503Z,38.80
2019-03-05T03:35:35.658Z,38.70
2019-03-05T03:38:05.803Z,39.65
2019-03-05T03:40:35.982Z,41.08
2019-03-05T03:43:06.049Z,44.73
2019-03-05T03:45:36.039Z,47.43
2019-03-05T03:48:06.317Z,44.88
2019-03-05T03:50:36.238Z,49.80
2019-03-05T03:53:06.351Z,51.92
2019-03-05T03:55:36.458Z,54.25
2019-03-05T03:58:06.485Z,53.38
2019-03-05T04:00:36.573Z,46.55
2019-03-05T04:03:06.674Z,44.60
2019-03-05T04:05:36.551Z,45.88
2019-03-05T04:08:06.597Z,42.88
2019-03-05T04:10:36.682Z,43.70
2019-03-05T04:13:06.581Z,46.77
2019-03-05T04:15:36.577Z,42.83
2019-03-05T04:18:06.653Z,42.15
2019-03-05T04:20:38.407Z,44.42
2019-03-05T04:23:08.463Z,46.73
2019-03-05T04:25:38.464Z,47.30
2019-03-05T04:28:08.515Z,49.73
2019-03-05T04:30:38.674Z,45.40
2019-03-05T04:33:08.650Z,45.85
2019-03-05T04:35:38.653Z,52.43
2019-03-05T04:38:08.719Z,51.30
2019-03-05T04:40:38.622Z,51.42
2019-03-05T04:43:08.703Z,51.95
2019-03-05T04:45:57.075Z,51.73
2019-03-05T04:48:27.270Z,51.10
2019-03-05T04:50:58.814Z,51.75
2019-03-05T04:53:28.842Z,51.40
2019-03-05T04:56:00.074Z,53.35
2019-03-05T04:58:30.123Z,53.20
2019-03-05T05:01:00.116Z,50.73
2019-03-05T05:03:30.180Z,52.75
2019-03-05T05:06:00.202Z,50.92
2019-03-05T05:08:30.174Z,53.15
2019-03-05T05:11:00.194Z,52.75
2019-03-05T05:13:30.196Z,56.15
2019-03-05T05:16:01.434Z,56.00
2019-03-05T05:18:31.491Z,53.95
2019-03-05T05:21:01.498Z,53.87
2019-03-05T05:23:31.518Z,53.08
2019-03-05T05:26:01.599Z,55.10
2019-03-05T05:28:31.764Z,57.50
2019-03-05T05:31:01.861Z,55.03
2019-03-05T05:33:32.102Z,58.92
2019-03-05T05:36:02.112Z,52.73
2019-03-05T05:38:32.182Z,54.80
2019-03-05T05:41:02.247Z,55.55
2019-03-05T05:43:32.886Z,56.20
2019-03-05T05:46:02.827Z,55.10
2019-03-05T05:48:32.810Z,50.23
2019-03-05T05:51:02.741Z,51.70
2019-03-05T05:53:32.716Z,53.55
2019-03-05T05:56:02.748Z,55.92
2019-03-05T05:58:32.887Z,54.48
2019-03-05T06:01:04.612Z,57.17
2019-03-05T06:03:34.616Z,59.88
2019-03-05T06:06:04.666Z,56.70
2019-03-05T06:08:34.713Z,58.10
2019-03-05T06:11:04.655Z,54.40
2019-03-05T06:13:34.941Z,55.43
2019-03-05T06:16:05.007Z,56.48
2019-03-05T06:18:35.186Z,56.20
2019-03-05T06:21:05.179Z,53.68
2019-03-05T06:23:35.320Z,55.98
2019-03-05T06:26:08.461Z,58.98
2019-03-05T06:28:36.907Z,55.43
2019-03-05T06:31:06.929Z,55.28
2019-03-05T06:33:36.977Z,53.17
2019-03-05T06:36:07.012Z,52.08
2019-03-05T06:38:37.179Z,50.50
2019-03-05T06:41:07.273Z,48.98
2019-03-05T06:43:37.185Z,53.02
2019-03-05T06:46:07.258Z,55.50
2019-03-05T06:48:37.294Z,56.13
2019-03-05T06:51:07.340Z,61.02
2019-03-05T06:53:37.428Z,60.48
2019-03-05T06:56:07.470Z,63.50
2019-03-05T06:58:37.463Z,63.55
2019-03-05T07:01:07.551Z,59.30
2019-03-05T07:03:37.585Z,58.10
2019-03-05T07:06:36.745Z,57.10
2019-03-05T07:09:12.879Z,56.85
2019-03-05T07:12:11.946Z,57.60
2019-03-05T07:15:20.369Z,59.53
2019-03-05T07:18:02.600Z,53.75
2019-03-05T07:20:54.132Z,59.27
2019-03-05T07:23:46.430Z,53.48
2019-03-05T07:26:16.355Z,52.43
2019-03-05T07:28:46.539Z,51.90
2019-03-05T07:31:16.583Z,50.45
2019-03-05T07:33:46.528Z,51.23
2019-03-05T07:36:16.465Z,52.25
2019-03-05T07:38:46.483Z,50.95
2019-03-05T07:41:16.543Z,49.77
2019-03-05T07:43:46.731Z,52.35
2019-03-05T07:46:16.733Z,50.03
2019-03-05T07:48:46.817Z,50.65
2019-03-05T07:51:16.857Z,49.05
2019-03-05T07:53:46.899Z,49.08
2019-03-05T07:56:17.010Z,50.20
2019-03-05T07:58:47.119Z,51.08
2019-03-05T08:01:22.180Z,49.18
2019-03-05T08:03:49.029Z,48.73
2019-03-05T08:06:20.086Z,49.33
2019-03-05T08:09:27.036Z,46.95
2019-03-05T08:12:20.097Z,46.18
2019-03-05T08:14:53.373Z,47.03
2019-03-05T08:17:24.342Z,47.30
2019-03-05T08:19:54.433Z,45.78
2019-03-05T08:22:24.601Z,48.10
2019-03-05T08:24:54.591Z,49.33
2019-03-05T08:27:24.502Z,52.15
2019-03-05T08:29:54.547Z,53.42
2019-03-05T08:32:24.574Z,54.03
2019-03-05T08:34:54.617Z,52.65
2019-03-05T08:37:24.604Z,53.15
2019-03-05T08:39:54.660Z,48.75
2019-03-05T08:42:24.569Z,47.50
2019-03-05T08:44:54.654Z,47.73
2019-03-05T08:47:24.644Z,49.58
2019-03-05T08:49:54.655Z,48.23
2019-03-05T08:52:24.754Z,47.10
2019-03-05T08:54:54.908Z,48.87
2019-03-05T08:57:24.982Z,49.38
2019-03-05T08:59:55.104Z,53.35
2019-03-05T09:02:26.242Z,50.98
2019-03-05T09:04:56.362Z,50.03
2019-03-05T09:07:26.425Z,50.38
2019-03-05T09:09:56.487Z,51.68
2019-03-05T09:12:26.527Z,50.60
2019-03-05T09:14:56.692Z,47.98
2019-03-05T09:17:28.397Z,50.12
2019-03-05T09:19:59.504Z,51.65
2019-03-05T09:22:29.618Z,55.83
2019-03-05T09:24:59.744Z,53.38
2019-03-05T09:27:29.796Z,52.05
2019-03-05T09:29:59.897Z,53.65
2019-03-05T09:32:30.056Z,56.15
2019-03-05T09:35:00.372Z,56.68
2019-03-05T09:37:30.398Z,57.80
2019-03-05T09:40:00.581Z,57.27
2019-03-05T09:42:39.559Z,58.48
2019-03-05T09:45:02.254Z,54.33
2019-03-05T09:47:32.381Z,55.78
2019-03-05T09:50:02.471Z,52.58
2019-03-05T09:52:33.534Z,50.83
2019-03-05T09:55:03.969Z,50.75
2019-03-05T09:57:34.188Z,55.73
2019-03-05T10:00:06.673Z,51.80
2019-03-05T10:02:38.772Z,53.78
2019-03-05T10:05:11.862Z,53.25
2019-03-05T10:07:41.848Z,52.98
2019-03-05T10:10:25.804Z,53.33
2019-03-05T10:12:59.023Z,52.40
2019-03-05T10:15:28.713Z,52.33
2019-03-05T10:17:58.916Z,52.10
2019-03-05T10:20:30.547Z,52.38
2019-03-05T10:23:00.664Z,52.38
2019-03-05T10:25:30.715Z,50.30
2019-03-05T10:28:00.713Z,53.13
2019-03-05T10:30:32.583Z,52.90
2019-03-05T10:33:06.787Z,52.88
2019-03-05T10:35:36.890Z,51.65
2019-03-05T10:38:07.860Z,50.38
2019-03-05T10:40:53.257Z,50.35
2019-03-05T10:43:23.296Z,51.13
2019-03-05T10:45:53.360Z,52.73
2019-03-05T10:48:25.456Z,51.80
2019-03-05T10:50:55.559Z,56.08
2019-03-05T10:53:25.613Z,52.65
2019-03-05T10:55:55.693Z,55.60
2019-03-05T10:58:33.836Z,55.65
2019-03-05T11:00:57.385Z,53.83
2019-03-05T11:03:29.643Z,53.75
2019-03-05T11:05:59.680Z,51.10
2019-03-05T11:08:29.754Z,50.83
2019-03-05T11:10:59.799Z,53.08
2019-03-05T11:13:29.898Z,52.88
2019-03-05T11:16:01.414Z,49.80
2019-03-05T11:18:32.502Z,50.58
2019-03-05T11:21:02.615Z,50.10
2019-03-05T11:23:36.815Z,48.83
2019-03-05T11:26:06.860Z,51.58
2019-03-05T11:28:36.938Z,55.83
2019-03-05T11:31:07.021Z,56.85
2019-03-05T11:33:37.107Z,58.42
2019-03-05T11:36:07.276Z,56.77
2019-03-05T11:38:37.254Z,55.67
2019-03-05T11:41:07.243Z,57.23
2019-03-05T11:43:37.329Z,52.23
2019-03-05T11:46:10.372Z,54.40
2019-03-05T11:48:40.436Z,52.30
2019-03-05T11:51:10.513Z,56.55
2019-03-05T11:53:40.587Z,55.73
2019-03-05T11:56:11.004Z,55.25
2019-03-05T11:58:40.940Z,55.12
2019-03-05T12:01:15.659Z,57.05
2019-03-05T12:03:45.812Z,55.10
2019-03-05T12:06:15.829Z,57.67
2019-03-05T12:08:45.923Z,58.95
2019-03-05T12:11:16.020Z,62.03
2019-03-05T12:13:46.122Z,61.48
2019-03-05T12:16:16.181Z,62.83
2019-03-05T12:18:46.153Z,59.83
2019-03-05T12:21:17.296Z,60.12
2019-03-05T12:23:48.345Z,63.92
2019-03-05T12:26:18.580Z,61.55
2019-03-05T12:28:48.601Z,61.45
2019-03-05T12:31:18.573Z,60.35
2019-03-05T12:33:48.663Z,60.05
2019-03-05T12:36:18.649Z,61.00
2019-03-05T12:38:48.647Z,62.03
2019-03-05T12:41:18.722Z,58.90
2019-03-05T12:43:48.777Z,57.93
2019-03-05T12:46:18.773Z,58.95
2019-03-05T12:48:48.753Z,59.40
2019-03-05T12:51:18.754Z,55.50
2019-03-05T12:53:48.910Z,57.50
2019-03-05T12:56:23.990Z,50.65
2019-03-05T12:58:51.618Z,57.33
2019-03-05T13:01:21.737Z,55.50
2019-03-05T13:03:51.749Z,54.63
2019-03-05T13:06:21.787Z,56.15
2019-03-05T13:08:51.843Z,63.45
2019-03-05T13:11:21.986Z,62.20
2019-03-05T13:14:05.406Z,60.40
2019-03-05T13:16:24.850Z,61.42
2019-03-05T13:18:55.034Z,64.37
2019-03-05T13:21:24.979Z,62.78
2019-03-05T13:23:55.040Z,63.55
2019-03-05T13:26:25.257Z,61.05
2019-03-05T13:28:55.314Z,61.77
2019-03-05T13:31:25.254Z,62.13
2019-03-05T13:33:55.201Z,60.00
2019-03-05T13:36:25.341Z,59.15
2019-03-05T13:38:55.359Z,57.98
2019-03-05T13:41:25.415Z,57.05
2019-03-05T13:43:55.680Z,58.33
2019-03-05T13:46:29.646Z,55.67
2019-03-05T13:49:18.081Z,55.28
2019-03-05T13:52:04.054Z,55.83
2019-03-05T13:54:49.719Z,55.25
2019-03-05T13:57:51.415Z,55.48
2019-03-05T14:00:20.317Z,52.58
2019-03-05T14:03:08.847Z,53.23
2019-03-05T14:05:58.526Z,51.55
2019-03-05T14:08:33.670Z,50.67
2019-03-05T14:11:03.386Z,51.42
2019-03-05T14:13:33.445Z,47.88
2019-03-05T14:16:07.066Z,48.52
2019-03-05T14:18:37.160Z,51.37
2019-03-05T14:21:07.313Z,48.48
2019-03-05T14:23:37.285Z,46.65
2019-03-05T14:26:07.351Z,48.70
2019-03-05T14:28:37.430Z,48.40
2019-03-05T14:31:07.460Z,47.53
2019-03-05T14:33:37.470Z,45.30
2019-03-05T14:36:07.570Z,47.55
2019-03-05T14:38:37.528Z,44.60
2019-03-05T14:41:07.555Z,46.30
2019-03-05T14:43:37.652Z,46.05
2019-03-05T14:46:07.836Z,45.38
2019-03-05T14:48:37.979Z,43.58
2019-03-05T14:51:08.227Z,41.65
2019-03-05T14:53:40.918Z,41.25
2019-03-05T14:56:11.051Z,41.63
2019-03-05T14:58:41.087Z,41.50
2019-03-05T15:01:11.254Z,43.33
2019-03-05T15:03:44.031Z,42.43
2019-03-05T15:06:14.081Z,42.08
2019-03-05T15:08:45.238Z,45.65
2019-03-05T15:11:15.199Z,43.13
2019-03-05T15:13:45.297Z,42.88
2019-03-05T15:16:15.297Z,44.38
2019-03-05T15:18:45.353Z,43.60
2019-03-05T15:21:15.240Z,43.35
2019-03-05T15:23:45.216Z,41.85
2019-03-05T15:26:15.206Z,43.10
2019-03-05T15:28:55.700Z,42.53
2019-03-05T15:31:16.854Z,43.40
2019-03-05T15:33:46.985Z,42.43
2019-03-05T15:36:23.757Z,44.00
2019-03-05T15:38:49.004Z,42.65
2019-03-05T15:41:19.085Z,45.40
2019-03-05T15:43:49.096Z,43.42
2019-03-05T15:46:19.273Z,43.63
2019-03-05T15:48:49.324Z,41.95
2019-03-05T15:51:20.535Z,43.80
2019-03-05T15:53:50.576Z,42.27
2019-03-05T15:56:20.571Z,43.08
2019-03-05T15:58:52.228Z,41.28
2019-03-05T16:01:22.871Z,40.58
2019-03-05T16:03:53.705Z,41.30
2019-03-05T16:06:23.753Z,41.00
2019-03-05T16:08:53.689Z,40.35
2019-03-05T16:11:23.744Z,42.00
2019-03-05T16:13:56.542Z,43.45
2019-03-05T16:16:25.491Z,42.48
2019-03-05T16:18:55.587Z,39.33
2019-03-05T16:21:25.642Z,38.53
2019-03-05T16:23:55.646Z,39.38
2019-03-05T16:26:25.769Z,40.28
2019-03-05T16:28:55.827Z,39.03
2019-03-05T16:31:30.449Z,42.95
2019-03-05T16:34:01.926Z,43.87
2019-03-05T16:36:37.713Z,41.83
2019-03-05T16:39:18.579Z,44.93
2019-03-05T16:41:53.359Z,42.05
2019-03-05T16:44:39.981Z,42.33
2019-03-05T16:47:14.334Z,45.55
2019-03-05T16:49:57.926Z,44.58
2019-03-05T16:52:44.726Z,45.60
2019-03-05T16:55:32.582Z,45.98
2019-03-05T17:00:34.991Z,45.23
2019-03-05T17:03:12.896Z,44.42
2019-03-05T17:05:44.444Z,47.08
2019-03-05T17:08:16.140Z,45.85
2019-03-05T17:10:50.616Z,45.65
2019-03-05T17:13:20.581Z,46.23
2019-03-05T17:15:50.660Z,47.55
2019-03-05T17:18:21.578Z,46.30
2019-03-05T17:20:51.694Z,48.15
2019-03-05T17:23:21.672Z,46.70
2019-03-05T17:25:51.675Z,47.75
2019-03-05T17:28:21.800Z,48.38
2019-03-05T17:30:51.803Z,48.55
2019-03-05T17:33:21.869Z,51.18
2019-03-05T17:35:51.926Z,53.35
2019-03-05T17:38:21.913Z,51.60
2019-03-05T17:40:52.942Z,54.98
2019-03-05T17:43:23.712Z,55.12
2019-03-05T17:45:53.824Z,53.92
2019-03-05T17:48:24.222Z,53.95
2019-03-05T17:50:54.236Z,55.00
2019-03-05T17:53:25.304Z,54.20
2019-03-05T17:55:55.351Z,53.25
2019-03-05T17:58:25.312Z,52.38
2019-03-05T18:00:56.104Z,53.50
2019-03-05T18:03:26.090Z,51.15
2019-03-05T18:05:56.366Z,52.48
2019-03-05T18:08:26.400Z,49.00
2019-03-05T18:10:56.737Z,48.00
2019-03-05T18:13:26.895Z,54.73
2019-03-05T18:15:57.093Z,51.28
2019-03-05T18:18:27.094Z,51.00
2019-03-05T18:20:57.231Z,52.53
2019-03-05T18:23:27.352Z,54.18
2019-03-05T18:25:57.403Z,53.20
2019-03-05T18:28:27.663Z,56.77
2019-03-05T18:30:57.652Z,58.65
2019-03-05T18:33:28.695Z,58.30
2019-03-05T18:35:58.858Z,56.63
2019-03-05T18:38:29.001Z,56.37
2019-03-05T18:40:58.994Z,56.58
2019-03-05T18:43:29.327Z,52.70
2019-03-05T18:45:59.397Z,56.92
2019-03-05T18:48:29.590Z,52.55
2019-03-05T18:50:59.832Z,56.40
2019-03-05T18:53:29.823Z,53.80
2019-03-05T18:55:59.830Z,52.75
2019-03-05T18:58:29.807Z,51.40
2019-03-05T19:00:59.924Z,51.20
2019-03-05T19:03:30.029Z,54.30
2019-03-05T19:06:00.139Z,51.80
2019-03-05T19:08:30.291Z,53.55
2019-03-05T19:11:00.349Z,54.48
2019-03-05T19:13:30.605Z,49.10
2019-03-05T19:16:00.714Z,49.75
2019-03-05T19:18:30.698Z,46.25
2019-03-05T19:21:00.818Z,45.15
2019-03-05T19:23:31.015Z,42.25
2019-03-05T19:26:00.929Z,40.60
2019-03-05T19:28:30.917Z,40.10
2019-03-05T19:31:00.986Z,41.42
2019-03-05T19:33:31.210Z,40.48
2019-03-05T19:36:01.254Z,39.60
2019-03-05T19:38:31.295Z,40.10
2019-03-05T19:41:01.436Z,41.25
2019-03-05T19:43:31.338Z,42.27
2019-03-05T19:46:01.390Z,42.90
2019-03-05T19:48:31.493Z,39.25
2019-03-05T19:51:01.455Z,38.65
2019-03-05T19:53:31.577Z,39.40
2019-03-05T19:56:01.816Z,39.08
2019-03-05T19:58:32.091Z,38.70
2019-03-05T20:01:03.728Z,38.28
2019-03-05T20:03:36.832Z,41.88
2019-03-05T20:06:07.003Z,39.53
2019-03-05T20:08:40.203Z,37.78
2019-03-05T20:11:09.714Z,37.58
2019-03-05T20:13:39.838Z,38.40
2019-03-05T20:16:10.059Z,39.42
2019-03-05T20:18:40.114Z,38.65
2019-03-05T20:21:10.588Z,40.05
2019-03-05T20:23:40.501Z,40.50
2019-03-05T20:26:22.737Z,42.45
2019-03-05T20:28:52.660Z,42.93
2019-03-05T20:31:22.824Z,44.30
2019-03-05T20:33:52.958Z,40.98
2019-03-05T20:36:22.980Z,41.88
2019-03-05T20:38:53.133Z,41.55
2019-03-05T20:41:23.131Z,41.73
2019-03-05T20:43:53.374Z,39.92
2019-03-05T20:46:23.376Z,40.45
2019-03-05T20:48:53.376Z,42.78
2019-03-05T20:51:23.444Z,40.65
2019-03-05T20:53:53.557Z,41.80
2019-03-05T20:56:23.655Z,41.20
2019-03-05T20:58:53.719Z,41.30
2019-03-05T21:01:23.896Z,41.48
2019-03-05T21:03:54.045Z,40.95
2019-03-05T21:06:24.295Z,40.17
2019-03-05T21:08:54.320Z,41.55
2019-03-05T21:11:24.360Z,41.98
2019-03-05T21:13:54.644Z,38.60
2019-03-05T21:16:25.666Z,41.00
2019-03-05T21:18:55.659Z,40.03
2019-03-05T21:21:25.845Z,43.00
2019-03-05T21:23:55.846Z,43.20
2019-03-05T21:26:25.919Z,41.02
2019-03-05T21:28:56.275Z,39.88
2019-03-05T21:31:26.251Z,41.85
2019-03-05T21:33:56.230Z,42.55
2019-03-05T21:36:26.330Z,39.05
2019-03-05T21:38:56.470Z,42.20
2019-03-05T21:41:26.578Z,42.25
2019-03-05T21:43:56.714Z,42.55
2019-03-05T21:46:26.819Z,43.68
2019-03-05T21:48:56.795Z,43.63
2019-03-05T21:51:27.041Z,43.83
2019-03-05T21:53:57.180Z,42.23
2019-03-05T21:56:27.149Z,41.65
2019-03-05T21:58:57.128Z,42.27
2019-03-05T22:01:27.168Z,42.17
2019-03-05T22:03:57.260Z,42.67
2019-03-05T22:06:27.282Z,44.88
2019-03-05T22:08:57.386Z,42.98
2019-03-05T22:11:27.458Z,42.90
2019-03-05T22:13:57.828Z,41.85
2019-03-05T22:16:27.967Z,39.75
2019-03-05T22:18:58.034Z,40.95
2019-03-05T22:21:28.116Z,41.75
2019-03-05T22:23:59.281Z,41.60
2019-03-05T22:26:29.333Z,39.63
2019-03-05T22:28:59.378Z,66.90
2019-03-05T22:31:29.513Z,88.42
2019-03-05T22:33:59.491Z,72.10
2019-03-05T22:36:32.097Z,79.42
2019-03-05T22:39:02.172Z,95.07
2019-03-05T22:41:33.856Z,47.43
2019-03-05T22:44:03.751Z,38.30
2019-03-05T22:46:34.894Z,47.80
2019-03-05T22:49:05.140Z,51.42
2019-03-05T22:51:35.221Z,40.80
2019-03-05T22:54:05.376Z,48.25
2019-03-05T22:56:35.447Z,40.15
2019-03-05T22:59:05.893Z,37.60
2019-03-05T23:01:37.341Z,24.57
2019-03-05T23:04:07.688Z,29.27
2019-03-05T23:06:37.767Z,27.55
2019-03-05T23:09:09.605Z,23.40
2019-03-05T23:11:41.177Z,23.92
2019-03-05T23:14:11.375Z,20.43
2019-03-05T23:16:41.512Z,21.68
2019-03-05T23:19:17.545Z,18.67
2019-03-05T23:21:47.549Z,19.57
2019-03-05T23:24:17.675Z,19.77
2019-03-05T23:26:47.840Z,21.25
2019-03-05T23:29:19.549Z,20.05
2019-03-05T23:31:49.738Z,22.13
2019-03-05T23:34:19.810Z,21.68
2019-03-05T23:36:50.829Z,21.25
2019-03-05T23:39:20.869Z,21.33
2019-03-05T23:41:50.928Z,21.75
2019-03-05T23:44:20.925Z,21.93
2019-03-05T23:46:51.048Z,22.82
2019-03-05T23:49:21.028Z,22.07
2019-03-05T23:51:51.014Z,20.43
2019-03-05T23:54:21.197Z,22.15
2019-03-05T23:56:51.327Z,21.93
2019-03-05T23:59:21.399Z,22.30
